sensor_id;sensor_type;location;lat;lon;timestamp;P1;durP1;ratioP1;P2;durP2;ratioP2
27161;SDS011;54464;50.558;9.704;2022-11-24T00:01:32;11.77;;;9.33;;
27161;SDS011;54464;50.558;9.704;2022-11-24T00:03:59;10.43;;;8.90;;
27161;SDS011;54464;50.558;9.704;2022-11-24T00:06:29;14.17;;;10.10;;
27161;SDS011;54464;50.558;9.704;2022-11-24T00:08:57;13.30;;;10.37;;
27161;SDS011;54464;50.558;9.704;2022-11-24T00:11:24;14.70;;;10.90;;
27161;SDS011;54464;50.558;9.704;2022-11-24T00:13:51;12.53;;;11.17;;
27161;SDS011;54464;50.558;9.704;2022-11-24T00:16:18;13.23;;;11.87;;
27161;SDS011;54464;50.558;9.704;2022-11-24T00:18:47;13.60;;;11.63;;
27161;SDS011;54464;50.558;9.704;2022-11-24T00:21:15;14.93;;;12.57;;
27161;SDS011;54464;50.558;9.704;2022-11-24T00:23:42;19.50;;;13.07;;
27161;SDS011;54464;50.558;9.704;2022-11-24T00:26:15;13.13;;;9.00;;
27161;SDS011;54464;50.558;9.704;2022-11-24T00:28:46;16.87;;;11.97;;
27161;SDS011;54464;50.558;9.704;2022-11-24T00:31:17;19.37;;;14.17;;
27161;SDS011;54464;50.558;9.704;2022-11-24T00:33:47;17.43;;;13.47;;
27161;SDS011;54464;50.558;9.704;2022-11-24T00:36:14;18.63;;;13.33;;
27161;SDS011;54464;50.558;9.704;2022-11-24T00:38:40;15.13;;;12.33;;
27161;SDS011;54464;50.558;9.704;2022-11-24T00:41:06;20.57;;;14.30;;
27161;SDS011;54464;50.558;9.704;2022-11-24T00:43:32;18.97;;;15.23;;
27161;SDS011;54464;50.558;9.704;2022-11-24T00:45:58;19.33;;;14.90;;
27161;SDS011;54464;50.558;9.704;2022-11-24T00:48:23;23.40;;;15.17;;
27161;SDS011;54464;50.558;9.704;2022-11-24T00:50:56;20.27;;;15.23;;
27161;SDS011;54464;50.558;9.704;2022-11-24T00:53:23;19.93;;;13.83;;
27161;SDS011;54464;50.558;9.704;2022-11-24T00:55:49;20.90;;;14.87;;
27161;SDS011;54464;50.558;9.704;2022-11-24T00:58:15;20.93;;;15.70;;
27161;SDS011;54464;50.558;9.704;2022-11-24T01:00:41;19.73;;;14.20;;
27161;SDS011;54464;50.558;9.704;2022-11-24T01:03:07;18.93;;;12.83;;
27161;SDS011;54464;50.558;9.704;2022-11-24T01:05:35;18.00;;;12.27;;
27161;SDS011;54464;50.558;9.704;2022-11-24T01:08:01;22.83;;;14.07;;
27161;SDS011;54464;50.558;9.704;2022-11-24T01:10:27;19.77;;;13.97;;
27161;SDS011;54464;50.558;9.704;2022-11-24T01:12:52;18.27;;;12.37;;
27161;SDS011;54464;50.558;9.704;2022-11-24T01:15:18;21.70;;;12.87;;
27161;SDS011;54464;50.558;9.704;2022-11-24T01:17:44;16.60;;;12.77;;
27161;SDS011;54464;50.558;9.704;2022-11-24T01:20:09;20.10;;;13.80;;
27161;SDS011;54464;50.558;9.704;2022-11-24T01:22:35;17.90;;;13.00;;
27161;SDS011;54464;50.558;9.704;2022-11-24T01:25:04;19.37;;;12.03;;
27161;SDS011;54464;50.558;9.704;2022-11-24T01:27:30;18.17;;;11.73;;
27161;SDS011;54464;50.558;9.704;2022-11-24T01:29:55;16.63;;;11.63;;
27161;SDS011;54464;50.558;9.704;2022-11-24T01:32:21;22.43;;;11.33;;
27161;SDS011;54464;50.558;9.704;2022-11-24T01:34:47;18.63;;;10.87;;
27161;SDS011;54464;50.558;9.704;2022-11-24T01:37:13;16.47;;;10.97;;
27161;SDS011;54464;50.558;9.704;2022-11-24T01:39:39;14.00;;;10.27;;
27161;SDS011;54464;50.558;9.704;2022-11-24T01:42:05;16.27;;;10.20;;
27161;SDS011;54464;50.558;9.704;2022-11-24T01:44:31;15.37;;;9.73;;
27161;SDS011;54464;50.558;9.704;2022-11-24T01:46:59;17.33;;;9.80;;
27161;SDS011;54464;50.558;9.704;2022-11-24T01:49:39;15.67;;;9.17;;
27161;SDS011;54464;50.558;9.704;2022-11-24T01:54:51;16.70;;;8.97;;
27161;SDS011;54464;50.558;9.704;2022-11-24T01:57:25;17.03;;;10.03;;
27161;SDS011;54464;50.558;9.704;2022-11-24T02:00:04;20.27;;;9.17;;
27161;SDS011;54464;50.558;9.704;2022-11-24T02:02:33;14.73;;;9.50;;
27161;SDS011;54464;50.558;9.704;2022-11-24T02:05:00;12.90;;;7.97;;
27161;SDS011;54464;50.558;9.704;2022-11-24T02:07:29;14.67;;;8.73;;
27161;SDS011;54464;50.558;9.704;2022-11-24T02:09:56;16.83;;;9.33;;
27161;SDS011;54464;50.558;9.704;2022-11-24T02:12:26;14.13;;;7.87;;
27161;SDS011;54464;50.558;9.704;2022-11-24T02:14:53;13.60;;;7.30;;
27161;SDS011;54464;50.558;9.704;2022-11-24T02:17:19;17.53;;;8.10;;
27161;SDS011;54464;50.558;9.704;2022-11-24T02:19:55;16.17;;;8.17;;
27161;SDS011;54464;50.558;9.704;2022-11-24T02:22:29;16.07;;;7.33;;
27161;SDS011;54464;50.558;9.704;2022-11-24T02:27:39;13.13;;;7.23;;
27161;SDS011;54464;50.558;9.704;2022-11-24T02:30:07;16.97;;;7.60;;
27161;SDS011;54464;50.558;9.704;2022-11-24T02:32:33;12.40;;;7.00;;
27161;SDS011;54464;50.558;9.704;2022-11-24T02:35:02;13.87;;;7.33;;
27161;SDS011;54464;50.558;9.704;2022-11-24T02:37:30;16.57;;;8.53;;
27161;SDS011;54464;50.558;9.704;2022-11-24T02:39:55;19.37;;;9.10;;
27161;SDS011;54464;50.558;9.704;2022-11-24T02:42:21;19.87;;;8.80;;
27161;SDS011;54464;50.558;9.704;2022-11-24T02:44:48;17.17;;;8.17;;
27161;SDS011;54464;50.558;9.704;2022-11-24T02:47:17;14.60;;;7.70;;
27161;SDS011;54464;50.558;9.704;2022-11-24T02:49:43;13.67;;;6.10;;
27161;SDS011;54464;50.558;9.704;2022-11-24T02:52:09;15.73;;;5.93;;
27161;SDS011;54464;50.558;9.704;2022-11-24T02:54:34;15.13;;;6.17;;
27161;SDS011;54464;50.558;9.704;2022-11-24T02:57:00;13.03;;;4.73;;
27161;SDS011;54464;50.558;9.704;2022-11-24T02:59:26;9.97;;;4.67;;
27161;SDS011;54464;50.558;9.704;2022-11-24T03:01:51;12.47;;;4.87;;
27161;SDS011;54464;50.558;9.704;2022-11-24T03:04:17;10.93;;;4.47;;
27161;SDS011;54464;50.558;9.704;2022-11-24T03:06:42;9.67;;;4.00;;
27161;SDS011;54464;50.558;9.704;2022-11-24T03:09:08;12.27;;;4.37;;
27161;SDS011;54464;50.558;9.704;2022-11-24T03:11:35;13.13;;;4.70;;
27161;SDS011;54464;50.558;9.704;2022-11-24T03:14:01;12.03;;;4.27;;
27161;SDS011;54464;50.558;9.704;2022-11-24T03:16:27;10.10;;;3.63;;
27161;SDS011;54464;50.558;9.704;2022-11-24T03:18:52;14.67;;;5.37;;
27161;SDS011;54464;50.558;9.704;2022-11-24T03:21:18;17.87;;;5.40;;
27161;SDS011;54464;50.558;9.704;2022-11-24T03:23:44;10.90;;;4.77;;
27161;SDS011;54464;50.558;9.704;2022-11-24T03:26:14;10.67;;;4.97;;
27161;SDS011;54464;50.558;9.704;2022-11-24T03:28:41;15.57;;;4.70;;
27161;SDS011;54464;50.558;9.704;2022-11-24T03:31:08;18.00;;;6.63;;
27161;SDS011;54464;50.558;9.704;2022-11-24T03:33:34;13.47;;;5.60;;
27161;SDS011;54464;50.558;9.704;2022-11-24T03:36:00;17.37;;;5.40;;
27161;SDS011;54464;50.558;9.704;2022-11-24T03:38:26;11.97;;;4.07;;
27161;SDS011;54464;50.558;9.704;2022-11-24T03:40:52;9.73;;;3.80;;
27161;SDS011;54464;50.558;9.704;2022-11-24T03:43:21;13.00;;;4.20;;
27161;SDS011;54464;50.558;9.704;2022-11-24T03:45:47;15.47;;;4.40;;
27161;SDS011;54464;50.558;9.704;2022-11-24T03:48:14;14.50;;;5.23;;
27161;SDS011;54464;50.558;9.704;2022-11-24T03:50:40;14.30;;;5.27;;
27161;SDS011;54464;50.558;9.704;2022-11-24T03:53:07;16.60;;;5.10;;
27161;SDS011;54464;50.558;9.704;2022-11-24T03:55:32;13.17;;;4.80;;
27161;SDS011;54464;50.558;9.704;2022-11-24T03:57:58;15.70;;;6.00;;
27161;SDS011;54464;50.558;9.704;2022-11-24T04:00:24;17.40;;;6.07;;
27161;SDS011;54464;50.558;9.704;2022-11-24T04:02:50;12.83;;;4.90;;
27161;SDS011;54464;50.558;9.704;2022-11-24T04:05:15;14.97;;;5.27;;
27161;SDS011;54464;50.558;9.704;2022-11-24T04:07:41;14.03;;;5.40;;
27161;SDS011;54464;50.558;9.704;2022-11-24T04:10:07;19.87;;;6.70;;
27161;SDS011;54464;50.558;9.704;2022-11-24T04:12:33;17.37;;;7.13;;
27161;SDS011;54464;50.558;9.704;2022-11-24T04:15:08;20.73;;;7.43;;
27161;SDS011;54464;50.558;9.704;2022-11-24T04:17:34;21.27;;;7.70;;
27161;SDS011;54464;50.558;9.704;2022-11-24T04:20:00;17.47;;;6.67;;
27161;SDS011;54464;50.558;9.704;2022-11-24T04:22:26;20.97;;;6.87;;
27161;SDS011;54464;50.558;9.704;2022-11-24T04:24:52;20.10;;;7.30;;
27161;SDS011;54464;50.558;9.704;2022-11-24T04:27:17;15.93;;;6.93;;
27161;SDS011;54464;50.558;9.704;2022-11-24T04:29:43;17.40;;;7.40;;
27161;SDS011;54464;50.558;9.704;2022-11-24T04:32:09;15.70;;;7.37;;
27161;SDS011;54464;50.558;9.704;2022-11-24T04:34:34;18.40;;;6.63;;
27161;SDS011;54464;50.558;9.704;2022-11-24T04:37:00;15.40;;;6.10;;
27161;SDS011;54464;50.558;9.704;2022-11-24T04:39:26;18.40;;;5.50;;
27161;SDS011;54464;50.558;9.704;2022-11-24T04:41:54;17.80;;;6.07;;
27161;SDS011;54464;50.558;9.704;2022-11-24T04:44:20;17.57;;;6.30;;
27161;SDS011;54464;50.558;9.704;2022-11-24T04:46:46;15.80;;;6.30;;
27161;SDS011;54464;50.558;9.704;2022-11-24T04:49:12;15.00;;;7.07;;
27161;SDS011;54464;50.558;9.704;2022-11-24T04:51:38;13.97;;;6.17;;
27161;SDS011;54464;50.558;9.704;2022-11-24T04:54:05;10.60;;;4.80;;
27161;SDS011;54464;50.558;9.704;2022-11-24T04:56:31;13.47;;;5.03;;
27161;SDS011;54464;50.558;9.704;2022-11-24T04:58:57;11.77;;;4.43;;
27161;SDS011;54464;50.558;9.704;2022-11-24T05:01:23;14.00;;;4.80;;
27161;SDS011;54464;50.558;9.704;2022-11-24T05:03:51;11.30;;;5.00;;
27161;SDS011;54464;50.558;9.704;2022-11-24T05:06:17;18.10;;;5.80;;
27161;SDS011;54464;50.558;9.704;2022-11-24T05:08:45;13.87;;;5.30;;
27161;SDS011;54464;50.558;9.704;2022-11-24T05:11:12;17.33;;;7.03;;
27161;SDS011;54464;50.558;9.704;2022-11-24T05:13:37;18.20;;;6.60;;
27161;SDS011;54464;50.558;9.704;2022-11-24T05:16:03;16.13;;;5.63;;
27161;SDS011;54464;50.558;9.704;2022-11-24T05:18:29;14.30;;;6.30;;
27161;SDS011;54464;50.558;9.704;2022-11-24T05:20:56;11.93;;;4.93;;
27161;SDS011;54464;50.558;9.704;2022-11-24T05:23:22;14.47;;;5.43;;
27161;SDS011;54464;50.558;9.704;2022-11-24T05:25:48;15.13;;;5.70;;
27161;SDS011;54464;50.558;9.704;2022-11-24T05:28:14;16.97;;;6.10;;
27161;SDS011;54464;50.558;9.704;2022-11-24T05:30:40;13.17;;;6.73;;
27161;SDS011;54464;50.558;9.704;2022-11-24T05:33:13;18.93;;;6.10;;
27161;SDS011;54464;50.558;9.704;2022-11-24T05:35:43;19.60;;;6.90;;
27161;SDS011;54464;50.558;9.704;2022-11-24T05:38:09;16.53;;;7.40;;
27161;SDS011;54464;50.558;9.704;2022-11-24T05:40:35;15.43;;;5.50;;
27161;SDS011;54464;50.558;9.704;2022-11-24T05:43:00;12.40;;;5.30;;
27161;SDS011;54464;50.558;9.704;2022-11-24T05:45:26;17.50;;;6.03;;
27161;SDS011;54464;50.558;9.704;2022-11-24T05:47:52;14.97;;;6.03;;
27161;SDS011;54464;50.558;9.704;2022-11-24T05:50:18;14.93;;;7.20;;
27161;SDS011;54464;50.558;9.704;2022-11-24T05:52:45;14.63;;;6.63;;
27161;SDS011;54464;50.558;9.704;2022-11-24T05:55:11;20.13;;;6.77;;
27161;SDS011;54464;50.558;9.704;2022-11-24T05:57:38;17.27;;;6.67;;
27161;SDS011;54464;50.558;9.704;2022-11-24T06:00:04;17.53;;;7.43;;
27161;SDS011;54464;50.558;9.704;2022-11-24T06:02:31;18.50;;;6.17;;
27161;SDS011;54464;50.558;9.704;2022-11-24T06:04:56;15.37;;;6.00;;
27161;SDS011;54464;50.558;9.704;2022-11-24T06:07:22;20.73;;;7.03;;
27161;SDS011;54464;50.558;9.704;2022-11-24T06:09:48;17.60;;;5.53;;
27161;SDS011;54464;50.558;9.704;2022-11-24T06:12:14;18.30;;;5.77;;
27161;SDS011;54464;50.558;9.704;2022-11-24T06:14:40;17.63;;;5.63;;
27161;SDS011;54464;50.558;9.704;2022-11-24T06:17:06;16.77;;;5.50;;
27161;SDS011;54464;50.558;9.704;2022-11-24T06:19:32;21.47;;;6.03;;
27161;SDS011;54464;50.558;9.704;2022-11-24T06:21:57;18.03;;;5.70;;
27161;SDS011;54464;50.558;9.704;2022-11-24T06:24:23;18.73;;;5.40;;
27161;SDS011;54464;50.558;9.704;2022-11-24T06:26:49;20.53;;;5.60;;
27161;SDS011;54464;50.558;9.704;2022-11-24T06:29:14;20.67;;;6.20;;
27161;SDS011;54464;50.558;9.704;2022-11-24T06:31:40;19.60;;;6.00;;
27161;SDS011;54464;50.558;9.704;2022-11-24T06:34:06;13.40;;;5.30;;
27161;SDS011;54464;50.558;9.704;2022-11-24T06:36:35;21.40;;;6.30;;
27161;SDS011;54464;50.558;9.704;2022-11-24T06:39:02;19.53;;;6.50;;
27161;SDS011;54464;50.558;9.704;2022-11-24T06:41:28;19.43;;;6.67;;
27161;SDS011;54464;50.558;9.704;2022-11-24T06:43:53;21.17;;;6.53;;
27161;SDS011;54464;50.558;9.704;2022-11-24T06:46:19;17.80;;;6.43;;
27161;SDS011;54464;50.558;9.704;2022-11-24T06:48:46;18.77;;;6.27;;
27161;SDS011;54464;50.558;9.704;2022-11-24T06:51:12;22.33;;;6.70;;
27161;SDS011;54464;50.558;9.704;2022-11-24T06:53:38;21.10;;;7.07;;
27161;SDS011;54464;50.558;9.704;2022-11-24T06:56:09;18.97;;;6.60;;
27161;SDS011;54464;50.558;9.704;2022-11-24T06:58:40;22.83;;;6.87;;
27161;SDS011;54464;50.558;9.704;2022-11-24T07:01:06;17.50;;;6.47;;
27161;SDS011;54464;50.558;9.704;2022-11-24T07:03:32;15.23;;;6.27;;
27161;SDS011;54464;50.558;9.704;2022-11-24T07:05:58;18.63;;;6.27;;
27161;SDS011;54464;50.558;9.704;2022-11-24T07:08:24;23.60;;;6.90;;
27161;SDS011;54464;50.558;9.704;2022-11-24T07:10:50;17.83;;;6.63;;
27161;SDS011;54464;50.558;9.704;2022-11-24T07:13:17;20.57;;;6.47;;
27161;SDS011;54464;50.558;9.704;2022-11-24T07:15:43;25.10;;;6.50;;
27161;SDS011;54464;50.558;9.704;2022-11-24T07:18:09;23.40;;;6.13;;
27161;SDS011;54464;50.558;9.704;2022-11-24T07:20:34;17.63;;;5.90;;
27161;SDS011;54464;50.558;9.704;2022-11-24T07:23:03;21.30;;;6.43;;
27161;SDS011;54464;50.558;9.704;2022-11-24T07:25:29;23.63;;;5.80;;
27161;SDS011;54464;50.558;9.704;2022-11-24T07:27:55;20.90;;;5.83;;
27161;SDS011;54464;50.558;9.704;2022-11-24T07:30:22;19.40;;;6.30;;
27161;SDS011;54464;50.558;9.704;2022-11-24T07:32:48;17.57;;;5.70;;
27161;SDS011;54464;50.558;9.704;2022-11-24T07:35:14;17.63;;;5.03;;
27161;SDS011;54464;50.558;9.704;2022-11-24T07:37:39;19.13;;;5.97;;
27161;SDS011;54464;50.558;9.704;2022-11-24T07:40:05;12.17;;;4.60;;
27161;SDS011;54464;50.558;9.704;2022-11-24T07:42:32;17.97;;;5.87;;
27161;SDS011;54464;50.558;9.704;2022-11-24T07:44:57;17.37;;;5.37;;
27161;SDS011;54464;50.558;9.704;2022-11-24T07:47:23;13.33;;;4.03;;
27161;SDS011;54464;50.558;9.704;2022-11-24T07:49:49;20.40;;;5.80;;
27161;SDS011;54464;50.558;9.704;2022-11-24T07:52:14;22.37;;;5.53;;
27161;SDS011;54464;50.558;9.704;2022-11-24T07:54:40;21.23;;;5.87;;
27161;SDS011;54464;50.558;9.704;2022-11-24T07:57:05;16.37;;;5.60;;
27161;SDS011;54464;50.558;9.704;2022-11-24T07:59:31;17.23;;;6.23;;
27161;SDS011;54464;50.558;9.704;2022-11-24T08:01:57;18.37;;;5.83;;
27161;SDS011;54464;50.558;9.704;2022-11-24T08:04:22;17.87;;;5.93;;
27161;SDS011;54464;50.558;9.704;2022-11-24T08:06:48;19.37;;;6.00;;
27161;SDS011;54464;50.558;9.704;2022-11-24T08:09:13;16.43;;;5.67;;
27161;SDS011;54464;50.558;9.704;2022-11-24T08:11:39;19.00;;;5.50;;
27161;SDS011;54464;50.558;9.704;2022-11-24T08:14:05;18.87;;;5.17;;
27161;SDS011;54464;50.558;9.704;2022-11-24T08:16:31;19.87;;;5.27;;
27161;SDS011;54464;50.558;9.704;2022-11-24T08:18:56;18.90;;;6.07;;
27161;SDS011;54464;50.558;9.704;2022-11-24T08:21:22;18.47;;;5.30;;
27161;SDS011;54464;50.558;9.704;2022-11-24T08:23:48;18.53;;;5.37;;
27161;SDS011;54464;50.558;9.704;2022-11-24T08:26:14;18.03;;;5.93;;
27161;SDS011;54464;50.558;9.704;2022-11-24T08:28:43;21.73;;;5.47;;
27161;SDS011;54464;50.558;9.704;2022-11-24T08:31:10;15.37;;;4.20;;
27161;SDS011;54464;50.558;9.704;2022-11-24T08:33:38;18.20;;;5.77;;
27161;SDS011;54464;50.558;9.704;2022-11-24T08:36:04;17.10;;;5.27;;
27161;SDS011;54464;50.558;9.704;2022-11-24T08:38:31;17.83;;;5.23;;
27161;SDS011;54464;50.558;9.704;2022-11-24T08:41:04;15.23;;;4.17;;
27161;SDS011;54464;50.558;9.704;2022-11-24T08:43:34;14.77;;;3.80;;
27161;SDS011;54464;50.558;9.704;2022-11-24T08:46:01;15.97;;;4.40;;
27161;SDS011;54464;50.558;9.704;2022-11-24T08:48:28;13.93;;;4.23;;
27161;SDS011;54464;50.558;9.704;2022-11-24T08:50:55;17.30;;;4.53;;
27161;SDS011;54464;50.558;9.704;2022-11-24T08:53:21;17.97;;;4.77;;
27161;SDS011;54464;50.558;9.704;2022-11-24T08:55:47;20.27;;;4.73;;
27161;SDS011;54464;50.558;9.704;2022-11-24T08:58:13;14.53;;;5.27;;
27161;SDS011;54464;50.558;9.704;2022-11-24T09:00:39;15.07;;;3.97;;
27161;SDS011;54464;50.558;9.704;2022-11-24T09:03:04;21.90;;;5.87;;
27161;SDS011;54464;50.558;9.704;2022-11-24T09:05:30;17.77;;;4.40;;
27161;SDS011;54464;50.558;9.704;2022-11-24T09:07:57;16.93;;;4.83;;
27161;SDS011;54464;50.558;9.704;2022-11-24T09:10:23;17.03;;;4.50;;
27161;SDS011;54464;50.558;9.704;2022-11-24T09:12:48;18.80;;;5.63;;
27161;SDS011;54464;50.558;9.704;2022-11-24T09:15:15;16.00;;;5.10;;
27161;SDS011;54464;50.558;9.704;2022-11-24T09:17:41;15.27;;;4.33;;
27161;SDS011;54464;50.558;9.704;2022-11-24T09:20:07;14.03;;;4.20;;
27161;SDS011;54464;50.558;9.704;2022-11-24T09:22:33;15.57;;;5.17;;
27161;SDS011;54464;50.558;9.704;2022-11-24T09:24:59;14.87;;;4.67;;
27161;SDS011;54464;50.558;9.704;2022-11-24T09:27:25;16.73;;;5.23;;
27161;SDS011;54464;50.558;9.704;2022-11-24T09:29:51;16.37;;;4.30;;
27161;SDS011;54464;50.558;9.704;2022-11-24T09:32:17;12.67;;;4.60;;
27161;SDS011;54464;50.558;9.704;2022-11-24T09:34:42;17.30;;;4.60;;
27161;SDS011;54464;50.558;9.704;2022-11-24T09:37:08;20.73;;;7.87;;
27161;SDS011;54464;50.558;9.704;2022-11-24T09:39:34;13.63;;;3.83;;
27161;SDS011;54464;50.558;9.704;2022-11-24T09:42:11;14.23;;;3.70;;
27161;SDS011;54464;50.558;9.704;2022-11-24T09:44:57;18.13;;;5.07;;
27161;SDS011;54464;50.558;9.704;2022-11-24T09:50:29;12.13;;;3.30;;
27161;SDS011;54464;50.558;9.704;2022-11-24T09:53:11;10.63;;;3.90;;
27161;SDS011;54464;50.558;9.704;2022-11-24T09:55:49;10.73;;;4.03;;
27161;SDS011;54464;50.558;9.704;2022-11-24T10:01:03;15.57;;;5.20;;
27161;SDS011;54464;50.558;9.704;2022-11-24T10:03:38;13.87;;;5.10;;
27161;SDS011;54464;50.558;9.704;2022-11-24T10:12:06;13.67;;;6.03;;
27161;SDS011;54464;50.558;9.704;2022-11-24T10:27:57;13.27;;;4.60;;
27161;SDS011;54464;50.558;9.704;2022-11-24T10:30:26;15.13;;;4.80;;
27161;SDS011;54464;50.558;9.704;2022-11-24T10:32:54;8.90;;;3.27;;
27161;SDS011;54464;50.558;9.704;2022-11-24T10:35:23;15.83;;;4.60;;
27161;SDS011;54464;50.558;9.704;2022-11-24T10:40:46;14.87;;;6.00;;
27161;SDS011;54464;50.558;9.704;2022-11-24T10:43:16;9.77;;;4.67;;
27161;SDS011;54464;50.558;9.704;2022-11-24T10:45:41;13.23;;;5.17;;
27161;SDS011;54464;50.558;9.704;2022-11-24T10:48:18;12.57;;;4.40;;
27161;SDS011;54464;50.558;9.704;2022-11-24T10:50:55;11.17;;;4.80;;
27161;SDS011;54464;50.558;9.704;2022-11-24T10:53:51;12.37;;;4.13;;
27161;SDS011;54464;50.558;9.704;2022-11-24T10:56:23;9.07;;;4.40;;
27161;SDS011;54464;50.558;9.704;2022-11-24T10:58:49;14.43;;;5.57;;
27161;SDS011;54464;50.558;9.704;2022-11-24T11:01:19;12.33;;;5.03;;
27161;SDS011;54464;50.558;9.704;2022-11-24T11:03:52;9.23;;;3.67;;
27161;SDS011;54464;50.558;9.704;2022-11-24T11:06:27;10.63;;;3.10;;
27161;SDS011;54464;50.558;9.704;2022-11-24T11:11:31;8.20;;;2.93;;
27161;SDS011;54464;50.558;9.704;2022-11-24T11:13:58;9.17;;;3.43;;
27161;SDS011;54464;50.558;9.704;2022-11-24T11:18:57;7.87;;;2.63;;
27161;SDS011;54464;50.558;9.704;2022-11-24T11:21:34;7.03;;;2.93;;
27161;SDS011;54464;50.558;9.704;2022-11-24T11:24:35;7.70;;;3.63;;
27161;SDS011;54464;50.558;9.704;2022-11-24T11:26:58;8.83;;;3.17;;
27161;SDS011;54464;50.558;9.704;2022-11-24T11:29:25;8.83;;;2.70;;
27161;SDS011;54464;50.558;9.704;2022-11-24T11:31:57;5.17;;;2.67;;
27161;SDS011;54464;50.558;9.704;2022-11-24T11:34:30;10.67;;;3.40;;
27161;SDS011;54464;50.558;9.704;2022-11-24T11:37:00;8.93;;;3.20;;
27161;SDS011;54464;50.558;9.704;2022-11-24T11:39:29;8.90;;;3.40;;
27161;SDS011;54464;50.558;9.704;2022-11-24T11:44:56;7.57;;;3.63;;
27161;SDS011;54464;50.558;9.704;2022-11-24T11:50:01;10.07;;;4.23;;
27161;SDS011;54464;50.558;9.704;2022-11-24T12:01:01;6.67;;;3.10;;
27161;SDS011;54464;50.558;9.704;2022-11-24T12:08:49;5.67;;;2.00;;
27161;SDS011;54464;50.558;9.704;2022-11-24T12:11:30;6.07;;;2.80;;
27161;SDS011;54464;50.558;9.704;2022-11-24T12:14:04;5.93;;;2.47;;
27161;SDS011;54464;50.558;9.704;2022-11-24T12:16:39;8.57;;;3.13;;
27161;SDS011;54464;50.558;9.704;2022-11-24T12:19:27;4.77;;;2.13;;
27161;SDS011;54464;50.558;9.704;2022-11-24T12:25:17;5.30;;;2.13;;
27161;SDS011;54464;50.558;9.704;2022-11-24T12:28:03;6.97;;;2.10;;
27161;SDS011;54464;50.558;9.704;2022-11-24T12:30:35;5.73;;;2.40;;
27161;SDS011;54464;50.558;9.704;2022-11-24T12:33:17;5.87;;;3.10;;
27161;SDS011;54464;50.558;9.704;2022-11-24T12:39:30;15.37;;;6.97;;
27161;SDS011;54464;50.558;9.704;2022-11-24T12:42:17;11.03;;;5.07;;
27161;SDS011;54464;50.558;9.704;2022-11-24T12:47:34;9.50;;;5.87;;
27161;SDS011;54464;50.558;9.704;2022-11-24T12:50:21;7.60;;;2.50;;
27161;SDS011;54464;50.558;9.704;2022-11-24T12:52:56;6.47;;;2.20;;
27161;SDS011;54464;50.558;9.704;2022-11-24T12:55:28;5.83;;;2.30;;
27161;SDS011;54464;50.558;9.704;2022-11-24T13:09:36;7.63;;;2.87;;
27161;SDS011;54464;50.558;9.704;2022-11-24T13:12:19;7.80;;;2.93;;
27161;SDS011;54464;50.558;9.704;2022-11-24T13:14:46;7.93;;;3.17;;
27161;SDS011;54464;50.558;9.704;2022-11-24T13:17:23;8.50;;;2.93;;
27161;SDS011;54464;50.558;9.704;2022-11-24T13:19:58;4.90;;;2.10;;
27161;SDS011;54464;50.558;9.704;2022-11-24T13:22:55;7.73;;;2.10;;
27161;SDS011;54464;50.558;9.704;2022-11-24T13:25:28;7.30;;;2.20;;
27161;SDS011;54464;50.558;9.704;2022-11-24T13:27:59;7.40;;;2.20;;
27161;SDS011;54464;50.558;9.704;2022-11-24T13:33:01;8.87;;;2.43;;
27161;SDS011;54464;50.558;9.704;2022-11-24T13:41:03;8.40;;;2.73;;
27161;SDS011;54464;50.558;9.704;2022-11-24T13:43:31;6.67;;;2.50;;
27161;SDS011;54464;50.558;9.704;2022-11-24T13:45:57;3.20;;;1.67;;
27161;SDS011;54464;50.558;9.704;2022-11-24T14:01:09;8.83;;;2.33;;
27161;SDS011;54464;50.558;9.704;2022-11-24T14:04:02;4.00;;;1.80;;
27161;SDS011;54464;50.558;9.704;2022-11-24T14:12:14;5.03;;;1.93;;
27161;SDS011;54464;50.558;9.704;2022-11-24T14:14:39;4.60;;;2.27;;
27161;SDS011;54464;50.558;9.704;2022-11-24T14:19:46;4.40;;;2.13;;
27161;SDS011;54464;50.558;9.704;2022-11-24T14:22:14;6.27;;;2.00;;
27161;SDS011;54464;50.558;9.704;2022-11-24T14:24:52;5.17;;;2.03;;
27161;SDS011;54464;50.558;9.704;2022-11-24T14:27:26;8.33;;;2.60;;
27161;SDS011;54464;50.558;9.704;2022-11-24T14:30:03;4.73;;;2.10;;
27161;SDS011;54464;50.558;9.704;2022-11-24T14:32:56;4.97;;;2.07;;
27161;SDS011;54464;50.558;9.704;2022-11-24T14:35:24;7.57;;;2.57;;
27161;SDS011;54464;50.558;9.704;2022-11-24T14:37:55;5.43;;;2.43;;
27161;SDS011;54464;50.558;9.704;2022-11-24T14:43:18;4.70;;;2.00;;
27161;SDS011;54464;50.558;9.704;2022-11-24T14:46:27;5.70;;;1.93;;
27161;SDS011;54464;50.558;9.704;2022-11-24T14:48:36;7.87;;;2.30;;
27161;SDS011;54464;50.558;9.704;2022-11-24T14:53:51;5.33;;;2.40;;
27161;SDS011;54464;50.558;9.704;2022-11-24T14:56:26;7.30;;;2.93;;
27161;SDS011;54464;50.558;9.704;2022-11-24T14:58:54;6.60;;;2.70;;
27161;SDS011;54464;50.558;9.704;2022-11-24T15:06:38;5.83;;;2.20;;
27161;SDS011;54464;50.558;9.704;2022-11-24T15:09:05;5.90;;;2.50;;
27161;SDS011;54464;50.558;9.704;2022-11-24T15:11:47;8.33;;;2.83;;
27161;SDS011;54464;50.558;9.704;2022-11-24T15:14:25;9.70;;;2.87;;
27161;SDS011;54464;50.558;9.704;2022-11-24T15:16:53;7.87;;;2.60;;
27161;SDS011;54464;50.558;9.704;2022-11-24T15:19:19;7.67;;;2.83;;
27161;SDS011;54464;50.558;9.704;2022-11-24T15:21:50;7.33;;;2.47;;
27161;SDS011;54464;50.558;9.704;2022-11-24T15:24:17;9.07;;;3.10;;
27161;SDS011;54464;50.558;9.704;2022-11-24T15:26:43;9.77;;;3.27;;
27161;SDS011;54464;50.558;9.704;2022-11-24T15:29:10;10.73;;;3.90;;
27161;SDS011;54464;50.558;9.704;2022-11-24T15:31:39;8.47;;;3.80;;
27161;SDS011;54464;50.558;9.704;2022-11-24T15:34:06;9.73;;;3.80;;
27161;SDS011;54464;50.558;9.704;2022-11-24T15:36:36;11.80;;;3.73;;
27161;SDS011;54464;50.558;9.704;2022-11-24T15:39:02;19.93;;;7.93;;
27161;SDS011;54464;50.558;9.704;2022-11-24T15:41:28;39.00;;;14.27;;
27161;SDS011;54464;50.558;9.704;2022-11-24T15:43:55;35.10;;;14.47;;
27161;SDS011;54464;50.558;9.704;2022-11-24T15:46:25;23.50;;;12.23;;
27161;SDS011;54464;50.558;9.704;2022-11-24T15:48:52;15.97;;;5.60;;
27161;SDS011;54464;50.558;9.704;2022-11-24T15:51:19;10.80;;;4.40;;
27161;SDS011;54464;50.558;9.704;2022-11-24T15:53:47;12.40;;;4.60;;
27161;SDS011;54464;50.558;9.704;2022-11-24T15:58:53;9.70;;;3.77;;
27161;SDS011;54464;50.558;9.704;2022-11-24T16:01:19;13.63;;;4.90;;
27161;SDS011;54464;50.558;9.704;2022-11-24T16:03:46;10.20;;;5.63;;
27161;SDS011;54464;50.558;9.704;2022-11-24T16:06:12;16.03;;;5.60;;
27161;SDS011;54464;50.558;9.704;2022-11-24T16:08:41;10.13;;;4.70;;
27161;SDS011;54464;50.558;9.704;2022-11-24T16:11:06;9.90;;;5.90;;
27161;SDS011;54464;50.558;9.704;2022-11-24T16:13:32;16.43;;;7.47;;
27161;SDS011;54464;50.558;9.704;2022-11-24T16:15:58;12.77;;;6.63;;
27161;SDS011;54464;50.558;9.704;2022-11-24T16:18:23;12.70;;;6.77;;
27161;SDS011;54464;50.558;9.704;2022-11-24T16:20:49;8.13;;;5.10;;
27161;SDS011;54464;50.558;9.704;2022-11-24T16:23:15;13.10;;;6.33;;
27161;SDS011;54464;50.558;9.704;2022-11-24T16:25:40;15.00;;;6.87;;
27161;SDS011;54464;50.558;9.704;2022-11-24T16:28:06;12.90;;;6.83;;
27161;SDS011;54464;50.558;9.704;2022-11-24T16:30:31;15.17;;;7.53;;
27161;SDS011;54464;50.558;9.704;2022-11-24T16:32:57;12.67;;;7.40;;
27161;SDS011;54464;50.558;9.704;2022-11-24T16:35:23;13.57;;;6.63;;
27161;SDS011;54464;50.558;9.704;2022-11-24T16:37:48;15.20;;;7.00;;
27161;SDS011;54464;50.558;9.704;2022-11-24T16:40:14;13.67;;;7.07;;
27161;SDS011;54464;50.558;9.704;2022-11-24T16:42:40;16.07;;;9.57;;
27161;SDS011;54464;50.558;9.704;2022-11-24T16:45:06;17.87;;;8.60;;